Pagrindinis puslapis
METAR-TAF:

METAR-TAF

Oro uostai :

Bermuda, Bermuda

platuma: 32-22N, ilguma: 064-41W, Aukštis: 6 m

Dabartinis oras

Ataskaita buvo paskelbta 34 minutes, ne 02:55 UTC
Vėjas 11 kt iš Šiaurės/Šiaurės Vakarų
Temperatūra 17°C
Drėgmė 72%
Slėgis 1015 hPa
Matomumas 10 km arba daugiau
Su prošvaistėmis ne aukštis 3800 ft

METAR: TXKF 070255Z 33011KT 9999 BKN038 17/12 Q1015

Laikas: 00:29 (03:29 UTC)

Prognozė

Ataskaita buvo paskelbta 3 valandos ir 44 minutes, ne 23:45 UTC
Prognozė galioja nuo 07 metu 00 UTC su 07 metu 24 UTC
Vėjas 15 kt iš Šiaurės/Šiaurės Vakarų
Matomumas 10 km arba daugiau
Išsisklaidę debesys ne aukštis 3500 ft
Su prošvaistėmis ne aukštis 5500 ft
Tapsmas
nuo 07 metu 12 UTC su 07 metu 15 UTC
Vėjas 12 kt iš Vakarų
Išsisklaidę debesys ne aukštis 1200 ft
Su prošvaistėmis ne aukštis 2000 ft

TAF: TXKF 062345Z 0700/0724 33015KT 9999 SCT035 BKN055 BECMG 0712/0715 27012KT SCT012 BKN020

Orai ataskaitas ir orų prognozės (METAR, TAF).

turimą stotys yra geltonos ir raudonos taškus žemėlapyje.

Perkelti pele per norėdami pamatyti stoties vardą.

Tada spustelėkite, norėdami matyti oro stebėjimo ir prognozės.

Norėdami pakeisti žemėlapį: spustelėkite ant žalios mygtukų su juodo kryžiaus žemyn,; žalią mygtuką su brūkšneliu, jei norite nutolinti; arba žalių rodyklių gretimoms žemėlapius.


METAR-TAF: